sensor_id;sensor_type;location;lat;lon;timestamp;temperature;humidity
210;DHT22;90;48.810;9.120;2022-09-13T00:01:09;18.30;71.50
210;DHT22;90;48.810;9.120;2022-09-13T00:03:37;18.20;71.60
210;DHT22;90;48.810;9.120;2022-09-13T00:06:09;18.20;71.90
210;DHT22;90;48.810;9.120;2022-09-13T00:08:37;18.00;72.10
210;DHT22;90;48.810;9.120;2022-09-13T00:11:06;18.10;71.70
210;DHT22;90;48.810;9.120;2022-09-13T00:13:33;18.00;71.90
210;DHT22;90;48.810;9.120;2022-09-13T00:16:00;18.10;71.80
210;DHT22;90;48.810;9.120;2022-09-13T00:18:29;18.00;72.50
210;DHT22;90;48.810;9.120;2022-09-13T00:21:06;18.00;73.00
210;DHT22;90;48.810;9.120;2022-09-13T00:23:33;17.80;73.40
210;DHT22;90;48.810;9.120;2022-09-13T00:26:05;17.70;73.90
210;DHT22;90;48.810;9.120;2022-09-13T00:28:32;17.60;74.10
210;DHT22;90;48.810;9.120;2022-09-13T00:31:03;17.50;74.70
210;DHT22;90;48.810;9.120;2022-09-13T00:33:31;17.50;74.70
210;DHT22;90;48.810;9.120;2022-09-13T00:36:01;17.40;75.00
210;DHT22;90;48.810;9.120;2022-09-13T00:38:30;17.40;75.00
210;DHT22;90;48.810;9.120;2022-09-13T00:40:57;17.40;74.80
210;DHT22;90;48.810;9.120;2022-09-13T00:43:41;17.40;74.90
210;DHT22;90;48.810;9.120;2022-09-13T00:46:14;17.30;75.00
210;DHT22;90;48.810;9.120;2022-09-13T00:48:44;17.40;75.10
210;DHT22;90;48.810;9.120;2022-09-13T00:51:12;17.40;74.80
210;DHT22;90;48.810;9.120;2022-09-13T00:53:44;17.40;75.00
210;DHT22;90;48.810;9.120;2022-09-13T00:56:18;17.30;75.50
210;DHT22;90;48.810;9.120;2022-09-13T00:58:50;17.20;75.80
210;DHT22;90;48.810;9.120;2022-09-13T01:01:20;17.20;75.90
210;DHT22;90;48.810;9.120;2022-09-13T01:03:49;17.20;75.90
210;DHT22;90;48.810;9.120;2022-09-13T01:06:19;17.10;75.90
210;DHT22;90;48.810;9.120;2022-09-13T01:08:51;17.20;75.50
210;DHT22;90;48.810;9.120;2022-09-13T01:11:24;17.30;75.30
210;DHT22;90;48.810;9.120;2022-09-13T01:13:54;17.40;75.20
210;DHT22;90;48.810;9.120;2022-09-13T01:16:21;17.40;75.10
210;DHT22;90;48.810;9.120;2022-09-13T01:18:49;17.50;74.90
210;DHT22;90;48.810;9.120;2022-09-13T01:21:54;17.60;74.60
210;DHT22;90;48.810;9.120;2022-09-13T01:24:50;17.70;74.50
210;DHT22;90;48.810;9.120;2022-09-13T01:27:36;17.80;74.20
210;DHT22;90;48.810;9.120;2022-09-13T01:30:17;17.70;74.10
210;DHT22;90;48.810;9.120;2022-09-13T01:33:09;17.70;74.30
210;DHT22;90;48.810;9.120;2022-09-13T01:35:46;17.60;74.80
210;DHT22;90;48.810;9.120;2022-09-13T01:41:20;17.50;75.40
210;DHT22;90;48.810;9.120;2022-09-13T01:43:56;17.40;75.40
210;DHT22;90;48.810;9.120;2022-09-13T01:46:33;17.40;75.60
210;DHT22;90;48.810;9.120;2022-09-13T01:49:08;17.40;75.60
210;DHT22;90;48.810;9.120;2022-09-13T01:51:44;17.30;75.60
210;DHT22;90;48.810;9.120;2022-09-13T01:54:17;17.30;75.60
210;DHT22;90;48.810;9.120;2022-09-13T01:56:52;17.40;75.50
210;DHT22;90;48.810;9.120;2022-09-13T01:59:26;17.30;75.40
210;DHT22;90;48.810;9.120;2022-09-13T02:01:59;17.20;75.90
210;DHT22;90;48.810;9.120;2022-09-13T02:04:31;17.10;76.40
210;DHT22;90;48.810;9.120;2022-09-13T02:07:05;17.00;76.70
210;DHT22;90;48.810;9.120;2022-09-13T02:09:36;17.00;76.70
210;DHT22;90;48.810;9.120;2022-09-13T02:12:09;17.00;76.70
210;DHT22;90;48.810;9.120;2022-09-13T02:14:43;17.00;76.70
210;DHT22;90;48.810;9.120;2022-09-13T02:17:14;17.00;76.90
210;DHT22;90;48.810;9.120;2022-09-13T02:19:47;16.90;77.00
210;DHT22;90;48.810;9.120;2022-09-13T02:22:21;16.90;77.20
210;DHT22;90;48.810;9.120;2022-09-13T02:24:53;16.90;77.20
210;DHT22;90;48.810;9.120;2022-09-13T02:27:25;16.90;77.30
210;DHT22;90;48.810;9.120;2022-09-13T02:29:57;16.90;77.40
210;DHT22;90;48.810;9.120;2022-09-13T02:32:31;17.00;77.30
210;DHT22;90;48.810;9.120;2022-09-13T02:35:03;16.90;77.20
210;DHT22;90;48.810;9.120;2022-09-13T02:37:38;16.80;77.60
210;DHT22;90;48.810;9.120;2022-09-13T02:40:09;16.80;77.90
210;DHT22;90;48.810;9.120;2022-09-13T02:42:42;16.80;78.00
210;DHT22;90;48.810;9.120;2022-09-13T02:45:11;16.70;78.20
210;DHT22;90;48.810;9.120;2022-09-13T02:47:46;16.60;78.50
210;DHT22;90;48.810;9.120;2022-09-13T02:50:24;16.60;78.70
210;DHT22;90;48.810;9.120;2022-09-13T02:53:02;16.60;78.80
210;DHT22;90;48.810;9.120;2022-09-13T02:55:37;16.50;79.00
210;DHT22;90;48.810;9.120;2022-09-13T02:58:09;16.50;79.10
210;DHT22;90;48.810;9.120;2022-09-13T03:00:38;16.50;79.10
210;DHT22;90;48.810;9.120;2022-09-13T03:03:10;16.50;79.30
210;DHT22;90;48.810;9.120;2022-09-13T03:05:38;16.60;79.30
210;DHT22;90;48.810;9.120;2022-09-13T03:08:06;16.50;79.40
210;DHT22;90;48.810;9.120;2022-09-13T03:10:45;16.50;79.50
210;DHT22;90;48.810;9.120;2022-09-13T03:13:27;16.50;79.60
210;DHT22;90;48.810;9.120;2022-09-13T03:16:04;16.50;79.80
210;DHT22;90;48.810;9.120;2022-09-13T03:18:51;16.50;79.60
210;DHT22;90;48.810;9.120;2022-09-13T03:21:32;16.50;79.50
210;DHT22;90;48.810;9.120;2022-09-13T03:24:12;16.70;78.90
210;DHT22;90;48.810;9.120;2022-09-13T03:26:45;16.60;78.40
210;DHT22;90;48.810;9.120;2022-09-13T03:29:25;16.70;78.10
210;DHT22;90;48.810;9.120;2022-09-13T03:32:09;16.80;77.80
210;DHT22;90;48.810;9.120;2022-09-13T03:34:47;16.80;77.50
210;DHT22;90;48.810;9.120;2022-09-13T03:37:23;16.80;77.10
210;DHT22;90;48.810;9.120;2022-09-13T03:39:54;16.90;77.30
210;DHT22;90;48.810;9.120;2022-09-13T03:42:24;16.90;77.20
210;DHT22;90;48.810;9.120;2022-09-13T03:44:55;16.90;77.30
210;DHT22;90;48.810;9.120;2022-09-13T03:47:24;16.80;77.60
210;DHT22;90;48.810;9.120;2022-09-13T03:49:54;16.80;77.80
210;DHT22;90;48.810;9.120;2022-09-13T03:52:22;16.80;78.20
210;DHT22;90;48.810;9.120;2022-09-13T03:54:49;16.70;78.30
210;DHT22;90;48.810;9.120;2022-09-13T03:57:19;16.60;78.60
210;DHT22;90;48.810;9.120;2022-09-13T03:59:48;16.50;78.90
210;DHT22;90;48.810;9.120;2022-09-13T04:02:17;16.50;79.10
210;DHT22;90;48.810;9.120;2022-09-13T04:04:45;16.50;79.10
210;DHT22;90;48.810;9.120;2022-09-13T04:07:16;16.40;79.50
210;DHT22;90;48.810;9.120;2022-09-13T04:09:43;16.40;79.60
210;DHT22;90;48.810;9.120;2022-09-13T04:12:11;16.40;79.80
210;DHT22;90;48.810;9.120;2022-09-13T04:14:39;16.30;79.90
210;DHT22;90;48.810;9.120;2022-09-13T04:17:06;16.30;80.10
210;DHT22;90;48.810;9.120;2022-09-13T04:19:37;16.20;80.40
210;DHT22;90;48.810;9.120;2022-09-13T04:22:04;16.30;80.30
210;DHT22;90;48.810;9.120;2022-09-13T04:24:32;16.30;80.00
210;DHT22;90;48.810;9.120;2022-09-13T04:27:01;16.30;80.00
210;DHT22;90;48.810;9.120;2022-09-13T04:29:29;16.30;80.10
210;DHT22;90;48.810;9.120;2022-09-13T04:31:58;16.20;80.30
210;DHT22;90;48.810;9.120;2022-09-13T04:34:25;16.20;80.20
210;DHT22;90;48.810;9.120;2022-09-13T04:36:52;16.10;80.40
210;DHT22;90;48.810;9.120;2022-09-13T04:39:19;16.10;81.00
210;DHT22;90;48.810;9.120;2022-09-13T04:41:48;16.10;80.90
210;DHT22;90;48.810;9.120;2022-09-13T04:44:17;16.10;80.90
210;DHT22;90;48.810;9.120;2022-09-13T04:46:46;16.20;80.90
210;DHT22;90;48.810;9.120;2022-09-13T04:49:14;16.30;80.60
210;DHT22;90;48.810;9.120;2022-09-13T04:51:41;16.20;80.70
210;DHT22;90;48.810;9.120;2022-09-13T04:54:09;16.30;80.80
210;DHT22;90;48.810;9.120;2022-09-13T04:56:39;16.20;80.70
210;DHT22;90;48.810;9.120;2022-09-13T04:59:08;16.30;80.60
210;DHT22;90;48.810;9.120;2022-09-13T05:01:35;16.30;80.30
210;DHT22;90;48.810;9.120;2022-09-13T05:04:03;16.30;80.40
210;DHT22;90;48.810;9.120;2022-09-13T05:06:30;16.40;80.50
210;DHT22;90;48.810;9.120;2022-09-13T05:08:57;16.30;80.90
210;DHT22;90;48.810;9.120;2022-09-13T05:11:26;16.30;81.00
210;DHT22;90;48.810;9.120;2022-09-13T05:13:54;16.40;80.80
210;DHT22;90;48.810;9.120;2022-09-13T05:16:25;16.40;80.70
210;DHT22;90;48.810;9.120;2022-09-13T05:18:52;16.40;80.90
210;DHT22;90;48.810;9.120;2022-09-13T05:21:20;16.40;81.10
210;DHT22;90;48.810;9.120;2022-09-13T05:23:48;16.30;81.20
210;DHT22;90;48.810;9.120;2022-09-13T05:26:16;16.30;81.10
210;DHT22;90;48.810;9.120;2022-09-13T05:28:44;16.30;81.60
210;DHT22;90;48.810;9.120;2022-09-13T05:31:14;16.30;81.60
210;DHT22;90;48.810;9.120;2022-09-13T05:33:45;16.30;81.60
210;DHT22;90;48.810;9.120;2022-09-13T05:36:12;16.30;81.80
210;DHT22;90;48.810;9.120;2022-09-13T05:38:39;16.30;82.10
210;DHT22;90;48.810;9.120;2022-09-13T05:41:08;16.30;82.00
210;DHT22;90;48.810;9.120;2022-09-13T05:43:36;16.30;81.80
210;DHT22;90;48.810;9.120;2022-09-13T05:46:04;16.30;81.80
210;DHT22;90;48.810;9.120;2022-09-13T05:48:33;16.30;82.00
210;DHT22;90;48.810;9.120;2022-09-13T05:51:06;16.30;82.10
210;DHT22;90;48.810;9.120;2022-09-13T05:53:35;16.30;82.10
210;DHT22;90;48.810;9.120;2022-09-13T05:56:04;16.20;82.60
210;DHT22;90;48.810;9.120;2022-09-13T05:58:32;16.20;82.60
210;DHT22;90;48.810;9.120;2022-09-13T06:01:00;16.20;82.80
210;DHT22;90;48.810;9.120;2022-09-13T06:03:27;16.30;82.80
210;DHT22;90;48.810;9.120;2022-09-13T06:05:55;16.40;82.60
210;DHT22;90;48.810;9.120;2022-09-13T06:08:24;16.40;82.80
210;DHT22;90;48.810;9.120;2022-09-13T06:10:56;16.40;82.30
210;DHT22;90;48.810;9.120;2022-09-13T06:13:24;16.50;82.10
210;DHT22;90;48.810;9.120;2022-09-13T06:15:52;16.60;82.10
210;DHT22;90;48.810;9.120;2022-09-13T06:18:20;16.60;82.00
210;DHT22;90;48.810;9.120;2022-09-13T06:20:49;17.00;81.60
210;DHT22;90;48.810;9.120;2022-09-13T06:23:17;17.10;80.00
210;DHT22;90;48.810;9.120;2022-09-13T06:25:45;17.20;79.50
210;DHT22;90;48.810;9.120;2022-09-13T06:28:12;17.10;79.80
210;DHT22;90;48.810;9.120;2022-09-13T06:30:39;17.10;80.00
210;DHT22;90;48.810;9.120;2022-09-13T06:33:07;17.20;80.50
210;DHT22;90;48.810;9.120;2022-09-13T06:35:34;17.20;80.50
210;DHT22;90;48.810;9.120;2022-09-13T06:38:03;17.00;81.00
210;DHT22;90;48.810;9.120;2022-09-13T06:40:30;17.00;81.10
210;DHT22;90;48.810;9.120;2022-09-13T06:42:59;17.00;81.00
210;DHT22;90;48.810;9.120;2022-09-13T06:45:26;17.00;80.90
210;DHT22;90;48.810;9.120;2022-09-13T06:47:56;17.10;80.50
210;DHT22;90;48.810;9.120;2022-09-13T06:50:24;17.10;80.20
210;DHT22;90;48.810;9.120;2022-09-13T06:52:51;17.20;80.10
210;DHT22;90;48.810;9.120;2022-09-13T06:55:18;17.10;80.40
210;DHT22;90;48.810;9.120;2022-09-13T06:57:45;17.30;80.10
210;DHT22;90;48.810;9.120;2022-09-13T07:00:14;17.30;79.80
210;DHT22;90;48.810;9.120;2022-09-13T07:02:49;17.40;79.80
210;DHT22;90;48.810;9.120;2022-09-13T07:05:17;17.60;79.30
210;DHT22;90;48.810;9.120;2022-09-13T07:08:38;17.60;79.30
210;DHT22;90;48.810;9.120;2022-09-13T07:11:00;17.80;79.70
210;DHT22;90;48.810;9.120;2022-09-13T07:13:27;18.30;78.40
210;DHT22;90;48.810;9.120;2022-09-13T07:15:56;18.50;77.20
210;DHT22;90;48.810;9.120;2022-09-13T07:18:23;18.60;76.70
210;DHT22;90;48.810;9.120;2022-09-13T07:20:50;18.50;76.60
210;DHT22;90;48.810;9.120;2022-09-13T07:23:17;18.50;76.90
210;DHT22;90;48.810;9.120;2022-09-13T07:25:53;18.50;77.20
210;DHT22;90;48.810;9.120;2022-09-13T07:28:20;18.50;77.40
210;DHT22;90;48.810;9.120;2022-09-13T07:30:47;18.50;77.80
210;DHT22;90;48.810;9.120;2022-09-13T07:33:16;18.50;78.30
210;DHT22;90;48.810;9.120;2022-09-13T07:35:43;18.50;78.60
210;DHT22;90;48.810;9.120;2022-09-13T07:38:10;18.50;78.80
210;DHT22;90;48.810;9.120;2022-09-13T07:40:37;18.70;78.70
210;DHT22;90;48.810;9.120;2022-09-13T07:43:04;18.70;78.40
210;DHT22;90;48.810;9.120;2022-09-13T07:45:33;18.80;78.30
210;DHT22;90;48.810;9.120;2022-09-13T07:48:00;18.90;77.80
210;DHT22;90;48.810;9.120;2022-09-13T07:50:29;19.00;77.20
210;DHT22;90;48.810;9.120;2022-09-13T07:52:58;19.10;76.10
210;DHT22;90;48.810;9.120;2022-09-13T07:55:26;19.30;75.70
210;DHT22;90;48.810;9.120;2022-09-13T07:57:53;19.50;75.00
210;DHT22;90;48.810;9.120;2022-09-13T08:00:20;19.70;74.10
210;DHT22;90;48.810;9.120;2022-09-13T08:02:48;19.90;73.60
210;DHT22;90;48.810;9.120;2022-09-13T08:05:16;20.00;72.70
210;DHT22;90;48.810;9.120;2022-09-13T08:07:44;20.10;72.60
210;DHT22;90;48.810;9.120;2022-09-13T08:10:11;20.20;72.40
210;DHT22;90;48.810;9.120;2022-09-13T08:12:38;20.20;72.60
210;DHT22;90;48.810;9.120;2022-09-13T08:15:06;20.30;72.70
210;DHT22;90;48.810;9.120;2022-09-13T08:17:33;20.40;72.90
210;DHT22;90;48.810;9.120;2022-09-13T08:20:01;20.40;72.30
210;DHT22;90;48.810;9.120;2022-09-13T08:22:29;20.50;72.00
210;DHT22;90;48.810;9.120;2022-09-13T08:24:57;20.50;72.50
210;DHT22;90;48.810;9.120;2022-09-13T08:27:24;20.50;72.90
210;DHT22;90;48.810;9.120;2022-09-13T08:29:51;20.50;72.70
210;DHT22;90;48.810;9.120;2022-09-13T08:32:18;20.50;72.70
210;DHT22;90;48.810;9.120;2022-09-13T08:34:46;20.50;73.10
210;DHT22;90;48.810;9.120;2022-09-13T08:37:13;20.50;72.60
210;DHT22;90;48.810;9.120;2022-09-13T08:39:40;20.50;72.60
210;DHT22;90;48.810;9.120;2022-09-13T08:42:20;20.60;72.40
210;DHT22;90;48.810;9.120;2022-09-13T08:44:53;20.80;72.00
210;DHT22;90;48.810;9.120;2022-09-13T08:47:29;20.90;72.10
210;DHT22;90;48.810;9.120;2022-09-13T08:50:04;21.00;71.50
210;DHT22;90;48.810;9.120;2022-09-13T08:52:37;21.00;71.70
210;DHT22;90;48.810;9.120;2022-09-13T08:55:20;21.10;69.80
210;DHT22;90;48.810;9.120;2022-09-13T08:58:01;21.20;69.70
210;DHT22;90;48.810;9.120;2022-09-13T09:00:35;21.10;69.90
210;DHT22;90;48.810;9.120;2022-09-13T09:03:15;21.20;70.20
210;DHT22;90;48.810;9.120;2022-09-13T09:05:45;21.30;70.20
210;DHT22;90;48.810;9.120;2022-09-13T09:08:18;21.40;69.70
210;DHT22;90;48.810;9.120;2022-09-13T09:10:49;21.70;67.00
210;DHT22;90;48.810;9.120;2022-09-13T09:19:47;22.60;63.60
210;DHT22;90;48.810;9.120;2022-09-13T09:22:18;22.80;63.40
210;DHT22;90;48.810;9.120;2022-09-13T09:25:10;22.90;62.80
210;DHT22;90;48.810;9.120;2022-09-13T09:27:51;23.00;62.30
210;DHT22;90;48.810;9.120;2022-09-13T09:30:40;23.00;62.20
210;DHT22;90;48.810;9.120;2022-09-13T09:33:37;23.10;62.20
210;DHT22;90;48.810;9.120;2022-09-13T09:36:15;23.20;61.80
210;DHT22;90;48.810;9.120;2022-09-13T09:39:20;23.20;61.60
210;DHT22;90;48.810;9.120;2022-09-13T09:41:58;23.20;61.70
210;DHT22;90;48.810;9.120;2022-09-13T09:44:32;23.20;61.30
210;DHT22;90;48.810;9.120;2022-09-13T09:47:05;23.30;61.70
210;DHT22;90;48.810;9.120;2022-09-13T09:49:40;23.30;61.60
210;DHT22;90;48.810;9.120;2022-09-13T09:52:30;23.30;61.60
210;DHT22;90;48.810;9.120;2022-09-13T09:55:11;23.30;62.00
210;DHT22;90;48.810;9.120;2022-09-13T09:57:53;23.10;62.20
210;DHT22;90;48.810;9.120;2022-09-13T10:00:24;23.20;61.90
210;DHT22;90;48.810;9.120;2022-09-13T10:02:56;23.20;61.60
210;DHT22;90;48.810;9.120;2022-09-13T10:05:25;23.20;61.40
210;DHT22;90;48.810;9.120;2022-09-13T10:07:59;23.30;61.10
210;DHT22;90;48.810;9.120;2022-09-13T10:10:34;23.20;61.00
210;DHT22;90;48.810;9.120;2022-09-13T10:13:06;23.20;61.30
210;DHT22;90;48.810;9.120;2022-09-13T10:15:34;23.30;60.70
210;DHT22;90;48.810;9.120;2022-09-13T10:18:12;23.40;60.40
210;DHT22;90;48.810;9.120;2022-09-13T10:20:59;23.40;60.70
210;DHT22;90;48.810;9.120;2022-09-13T10:23:28;23.50;60.80
210;DHT22;90;48.810;9.120;2022-09-13T10:26:08;23.60;60.60
210;DHT22;90;48.810;9.120;2022-09-13T10:28:45;23.80;60.00
210;DHT22;90;48.810;9.120;2022-09-13T10:31:14;23.90;59.70
210;DHT22;90;48.810;9.120;2022-09-13T10:33:55;24.00;59.50
210;DHT22;90;48.810;9.120;2022-09-13T10:36:28;24.10;58.60
210;DHT22;90;48.810;9.120;2022-09-13T10:39:16;24.10;58.50
210;DHT22;90;48.810;9.120;2022-09-13T10:41:50;24.20;57.40
210;DHT22;90;48.810;9.120;2022-09-13T10:44:30;24.30;57.40
210;DHT22;90;48.810;9.120;2022-09-13T10:47:01;24.30;55.60
210;DHT22;90;48.810;9.120;2022-09-13T10:49:47;24.40;56.40
210;DHT22;90;48.810;9.120;2022-09-13T10:52:30;24.50;56.80
210;DHT22;90;48.810;9.120;2022-09-13T10:55:44;24.50;55.40
210;DHT22;90;48.810;9.120;2022-09-13T10:58:27;24.50;55.00
210;DHT22;90;48.810;9.120;2022-09-13T11:01:15;24.50;53.50
210;DHT22;90;48.810;9.120;2022-09-13T11:07:09;24.60;53.60
210;DHT22;90;48.810;9.120;2022-09-13T11:09:45;24.60;52.30
210;DHT22;90;48.810;9.120;2022-09-13T11:12:20;24.60;54.70
210;DHT22;90;48.810;9.120;2022-09-13T11:15:06;24.50;53.70
210;DHT22;90;48.810;9.120;2022-09-13T11:18:03;24.50;57.30
210;DHT22;90;48.810;9.120;2022-09-13T11:20:39;24.50;54.80
210;DHT22;90;48.810;9.120;2022-09-13T11:23:36;24.60;54.30
210;DHT22;90;48.810;9.120;2022-09-13T11:29:16;24.70;55.10
210;DHT22;90;48.810;9.120;2022-09-13T11:31:52;24.80;54.40
210;DHT22;90;48.810;9.120;2022-09-13T11:34:36;24.70;52.60
210;DHT22;90;48.810;9.120;2022-09-13T11:37:19;24.70;53.50
210;DHT22;90;48.810;9.120;2022-09-13T11:39:56;24.70;53.10
210;DHT22;90;48.810;9.120;2022-09-13T11:42:35;24.70;53.70
210;DHT22;90;48.810;9.120;2022-09-13T11:45:29;24.60;52.30
210;DHT22;90;48.810;9.120;2022-09-13T11:48:14;24.70;53.90
210;DHT22;90;48.810;9.120;2022-09-13T11:50:52;24.80;52.70
210;DHT22;90;48.810;9.120;2022-09-13T11:53:38;24.90;55.00
210;DHT22;90;48.810;9.120;2022-09-13T11:56:12;25.00;52.60
210;DHT22;90;48.810;9.120;2022-09-13T11:58:45;25.00;52.10
210;DHT22;90;48.810;9.120;2022-09-13T12:01:20;25.00;52.80
210;DHT22;90;48.810;9.120;2022-09-13T12:03:53;25.00;52.80
210;DHT22;90;48.810;9.120;2022-09-13T12:06:28;25.00;53.50
210;DHT22;90;48.810;9.120;2022-09-13T12:09:00;25.10;52.10
210;DHT22;90;48.810;9.120;2022-09-13T12:11:31;25.20;51.90
210;DHT22;90;48.810;9.120;2022-09-13T12:14:01;25.30;50.40
210;DHT22;90;48.810;9.120;2022-09-13T12:16:34;25.40;51.50
210;DHT22;90;48.810;9.120;2022-09-13T12:19:06;25.50;51.10
210;DHT22;90;48.810;9.120;2022-09-13T12:21:39;25.50;50.60
210;DHT22;90;48.810;9.120;2022-09-13T12:24:13;25.70;49.20
210;DHT22;90;48.810;9.120;2022-09-13T12:26:47;25.70;50.70
210;DHT22;90;48.810;9.120;2022-09-13T12:29:19;25.90;50.60
210;DHT22;90;48.810;9.120;2022-09-13T12:31:52;25.90;49.50
210;DHT22;90;48.810;9.120;2022-09-13T12:34:23;25.80;50.20
210;DHT22;90;48.810;9.120;2022-09-13T12:37:10;25.80;49.80
210;DHT22;90;48.810;9.120;2022-09-13T12:39:55;25.90;48.40
210;DHT22;90;48.810;9.120;2022-09-13T12:42:40;26.00;49.00
210;DHT22;90;48.810;9.120;2022-09-13T12:48:24;26.20;49.20
210;DHT22;90;48.810;9.120;2022-09-13T12:51:05;26.30;49.90
210;DHT22;90;48.810;9.120;2022-09-13T12:53:56;26.20;50.50
210;DHT22;90;48.810;9.120;2022-09-13T12:56:40;26.30;50.40
210;DHT22;90;48.810;9.120;2022-09-13T13:02:25;26.40;47.80
210;DHT22;90;48.810;9.120;2022-09-13T13:04:56;26.40;48.50
210;DHT22;90;48.810;9.120;2022-09-13T13:07:26;26.40;47.20
210;DHT22;90;48.810;9.120;2022-09-13T13:09:55;26.40;47.90
210;DHT22;90;48.810;9.120;2022-09-13T13:12:28;26.30;49.00
210;DHT22;90;48.810;9.120;2022-09-13T13:14:57;26.30;47.70
210;DHT22;90;48.810;9.120;2022-09-13T13:17:39;26.30;48.50
210;DHT22;90;48.810;9.120;2022-09-13T13:20:43;26.30;47.80
210;DHT22;90;48.810;9.120;2022-09-13T13:23:18;26.20;47.60
210;DHT22;90;48.810;9.120;2022-09-13T13:29:16;26.00;48.30
210;DHT22;90;48.810;9.120;2022-09-13T13:32:10;25.80;47.80
210;DHT22;90;48.810;9.120;2022-09-13T13:34:40;25.70;49.00
210;DHT22;90;48.810;9.120;2022-09-13T13:37:32;25.70;49.60
210;DHT22;90;48.810;9.120;2022-09-13T13:40:23;25.60;48.80
210;DHT22;90;48.810;9.120;2022-09-13T13:43:15;25.70;48.90
210;DHT22;90;48.810;9.120;2022-09-13T13:48:41;26.00;47.70
210;DHT22;90;48.810;9.120;2022-09-13T13:51:16;26.10;48.00
210;DHT22;90;48.810;9.120;2022-09-13T13:53:49;26.10;46.80
210;DHT22;90;48.810;9.120;2022-09-13T13:56:28;26.10;47.20
210;DHT22;90;48.810;9.120;2022-09-13T13:58:59;26.20;47.90
210;DHT22;90;48.810;9.120;2022-09-13T14:01:31;26.10;47.40
210;DHT22;90;48.810;9.120;2022-09-13T14:07:00;26.00;46.80
210;DHT22;90;48.810;9.120;2022-09-13T14:09:37;25.90;45.00
210;DHT22;90;48.810;9.120;2022-09-13T14:12:20;25.90;46.80
210;DHT22;90;48.810;9.120;2022-09-13T14:15:02;25.80;47.00
210;DHT22;90;48.810;9.120;2022-09-13T14:17:53;25.90;46.50
210;DHT22;90;48.810;9.120;2022-09-13T14:20:28;25.90;47.10
210;DHT22;90;48.810;9.120;2022-09-13T14:23:10;25.90;45.80
210;DHT22;90;48.810;9.120;2022-09-13T14:25:39;25.90;45.70
210;DHT22;90;48.810;9.120;2022-09-13T14:28:06;25.90;46.00
210;DHT22;90;48.810;9.120;2022-09-13T14:30:35;25.90;46.60
210;DHT22;90;48.810;9.120;2022-09-13T14:33:04;26.00;45.30
210;DHT22;90;48.810;9.120;2022-09-13T14:35:32;26.30;44.10
210;DHT22;90;48.810;9.120;2022-09-13T14:38:19;26.50;43.00
210;DHT22;90;48.810;9.120;2022-09-13T14:40:48;26.90;42.30
210;DHT22;90;48.810;9.120;2022-09-13T14:43:18;27.00;41.60
210;DHT22;90;48.810;9.120;2022-09-13T14:45:48;26.90;40.90
210;DHT22;90;48.810;9.120;2022-09-13T14:48:19;26.80;42.10
210;DHT22;90;48.810;9.120;2022-09-13T14:50:50;26.60;42.10
210;DHT22;90;48.810;9.120;2022-09-13T14:53:20;26.50;43.10
210;DHT22;90;48.810;9.120;2022-09-13T14:55:52;26.40;43.20
210;DHT22;90;48.810;9.120;2022-09-13T14:58:23;26.20;42.90
210;DHT22;90;48.810;9.120;2022-09-13T15:00:54;26.10;43.80
210;DHT22;90;48.810;9.120;2022-09-13T15:03:23;26.00;43.60
210;DHT22;90;48.810;9.120;2022-09-13T15:05:52;25.90;44.50
210;DHT22;90;48.810;9.120;2022-09-13T15:08:43;25.90;45.30
210;DHT22;90;48.810;9.120;2022-09-13T15:11:16;25.80;45.30
210;DHT22;90;48.810;9.120;2022-09-13T15:14:11;25.80;45.40
210;DHT22;90;48.810;9.120;2022-09-13T15:16:46;25.70;45.90
210;DHT22;90;48.810;9.120;2022-09-13T15:19:15;25.60;45.80
210;DHT22;90;48.810;9.120;2022-09-13T15:21:42;25.50;45.60
210;DHT22;90;48.810;9.120;2022-09-13T15:24:19;25.40;45.00
210;DHT22;90;48.810;9.120;2022-09-13T15:26:48;25.30;45.10
210;DHT22;90;48.810;9.120;2022-09-13T15:29:26;25.30;45.20
210;DHT22;90;48.810;9.120;2022-09-13T15:31:59;25.20;45.60
210;DHT22;90;48.810;9.120;2022-09-13T15:34:27;25.20;45.30
210;DHT22;90;48.810;9.120;2022-09-13T15:37:08;25.10;45.40
210;DHT22;90;48.810;9.120;2022-09-13T15:39:43;25.00;46.00
210;DHT22;90;48.810;9.120;2022-09-13T15:42:13;25.00;46.00
210;DHT22;90;48.810;9.120;2022-09-13T15:44:40;25.00;46.10
210;DHT22;90;48.810;9.120;2022-09-13T15:47:09;24.90;45.90
210;DHT22;90;48.810;9.120;2022-09-13T15:49:38;25.00;45.50
210;DHT22;90;48.810;9.120;2022-09-13T15:52:07;25.00;45.40
210;DHT22;90;48.810;9.120;2022-09-13T15:54:36;24.90;45.00
210;DHT22;90;48.810;9.120;2022-09-13T15:57:06;24.90;45.00
210;DHT22;90;48.810;9.120;2022-09-13T15:59:35;24.80;45.00
210;DHT22;90;48.810;9.120;2022-09-13T16:02:17;24.80;45.80
210;DHT22;90;48.810;9.120;2022-09-13T16:04:48;24.80;45.90
210;DHT22;90;48.810;9.120;2022-09-13T16:07:16;24.70;48.00
210;DHT22;90;48.810;9.120;2022-09-13T16:09:44;24.70;49.00
210;DHT22;90;48.810;9.120;2022-09-13T16:12:13;24.70;48.80
210;DHT22;90;48.810;9.120;2022-09-13T16:14:41;24.60;48.20
210;DHT22;90;48.810;9.120;2022-09-13T16:17:12;24.60;48.20
210;DHT22;90;48.810;9.120;2022-09-13T16:19:41;24.50;47.60
210;DHT22;90;48.810;9.120;2022-09-13T16:22:08;24.50;47.90
210;DHT22;90;48.810;9.120;2022-09-13T16:24:35;24.50;47.30
210;DHT22;90;48.810;9.120;2022-09-13T16:27:03;24.50;48.40
210;DHT22;90;48.810;9.120;2022-09-13T16:29:30;24.50;48.10
210;DHT22;90;48.810;9.120;2022-09-13T16:31:58;24.40;48.30
210;DHT22;90;48.810;9.120;2022-09-13T16:34:26;24.40;48.70
210;DHT22;90;48.810;9.120;2022-09-13T16:36:53;24.40;49.30
210;DHT22;90;48.810;9.120;2022-09-13T16:39:20;24.30;50.20
210;DHT22;90;48.810;9.120;2022-09-13T16:41:47;24.30;51.00
210;DHT22;90;48.810;9.120;2022-09-13T16:44:15;24.30;52.00
210;DHT22;90;48.810;9.120;2022-09-13T16:46:42;24.20;53.10
210;DHT22;90;48.810;9.120;2022-09-13T16:49:12;24.20;54.00
210;DHT22;90;48.810;9.120;2022-09-13T16:51:39;24.20;55.10
210;DHT22;90;48.810;9.120;2022-09-13T16:54:06;24.10;55.50
210;DHT22;90;48.810;9.120;2022-09-13T16:56:33;24.10;56.20
210;DHT22;90;48.810;9.120;2022-09-13T16:59:00;24.10;56.40
210;DHT22;90;48.810;9.120;2022-09-13T17:01:28;24.10;56.50
210;DHT22;90;48.810;9.120;2022-09-13T17:03:56;24.00;56.90
210;DHT22;90;48.810;9.120;2022-09-13T17:06:25;24.00;57.50
210;DHT22;90;48.810;9.120;2022-09-13T17:08:54;24.00;57.90
210;DHT22;90;48.810;9.120;2022-09-13T17:11:25;23.90;58.00
210;DHT22;90;48.810;9.120;2022-09-13T17:13:53;23.80;58.50
210;DHT22;90;48.810;9.120;2022-09-13T17:16:25;23.70;59.00
210;DHT22;90;48.810;9.120;2022-09-13T17:18:52;23.60;59.30
210;DHT22;90;48.810;9.120;2022-09-13T17:21:20;23.50;59.70
210;DHT22;90;48.810;9.120;2022-09-13T17:23:49;23.40;60.20
210;DHT22;90;48.810;9.120;2022-09-13T17:26:16;23.40;60.50
210;DHT22;90;48.810;9.120;2022-09-13T17:28:43;23.40;60.60
210;DHT22;90;48.810;9.120;2022-09-13T17:31:10;23.30;60.50
210;DHT22;90;48.810;9.120;2022-09-13T17:33:38;23.20;60.80
210;DHT22;90;48.810;9.120;2022-09-13T17:36:07;23.10;61.40
210;DHT22;90;48.810;9.120;2022-09-13T17:38:35;23.10;62.00
210;DHT22;90;48.810;9.120;2022-09-13T17:41:05;23.10;62.50
210;DHT22;90;48.810;9.120;2022-09-13T17:43:33;23.00;62.80
210;DHT22;90;48.810;9.120;2022-09-13T17:46:03;23.00;62.70
210;DHT22;90;48.810;9.120;2022-09-13T17:48:30;23.00;63.40
210;DHT22;90;48.810;9.120;2022-09-13T17:51:01;22.90;63.50
210;DHT22;90;48.810;9.120;2022-09-13T17:53:30;22.80;63.90
210;DHT22;90;48.810;9.120;2022-09-13T17:55:57;22.80;63.70
210;DHT22;90;48.810;9.120;2022-09-13T17:58:26;22.80;63.60
210;DHT22;90;48.810;9.120;2022-09-13T18:01:00;22.80;63.40